Time;durP1;ratioP1;P1;durP2;ratioP2;P2;SDS_P1;SDS_P2;PMS_P1;PMS_P2;Temp;Humidity;BMP_temperature;BMP_pressure;BME280_temperature;BME280_humidity;BME280_pressure;Samples;Min_cycle;Max_cycle;Signal;HPM_P1;HPM_P2
2022/10/06 00:02:21;;;;;;;4.35;2.20;;;;;;;;;;4996952;28;20026;-77
2022/10/06 00:04:46;;;;;;;6.03;2.17;;;;;;;;;;5012007;28;20122;-76
2022/10/06 00:07:11;;;;;;;4.32;2.63;;;;;;;;;;4995548;28;20176;-77
2022/10/06 00:09:37;;;;;;;7.00;2.30;;;;;;;;;;4996867;28;20037;-75
2022/10/06 00:12:02;;;;;;;5.20;2.33;;;;;;;;;;4996756;28;20029;-76
2022/10/06 00:14:28;;;;;;;4.25;2.42;;;;;;;;;;4996691;28;20030;-77
2022/10/06 00:16:53;;;;;;;7.55;2.10;;;;;;;;;;4996715;28;20030;-77
2022/10/06 00:19:18;;;;;;;4.15;2.33;;;;;;;;;;4996806;28;20025;-76
2022/10/06 00:21:44;;;;;;;4.55;2.35;;;;;;;;;;4996613;28;20384;-75
2022/10/06 00:24:10;;;;;;;10.02;2.53;;;;;;;;;;4996679;28;20026;-76
2022/10/06 00:26:35;;;;;;;6.38;2.30;;;;;;;;;;4996498;28;20483;-76
2022/10/06 00:29:00;;;;;;;3.78;2.08;;;;;;;;;;4996434;28;20093;-77
2022/10/06 00:31:25;;;;;;;3.33;2.20;;;;;;;;;;4996600;28;20018;-76
2022/10/06 00:33:51;;;;;;;3.17;2.25;;;;;;;;;;4996494;28;20026;-77
2022/10/06 00:36:17;;;;;;;5.32;2.15;;;;;;;;;;4996267;28;20104;-79
2022/10/06 00:38:42;;;;;;;4.72;2.22;;;;;;;;;;4996273;28;20034;-75
2022/10/06 00:41:12;;;;;;;3.83;1.98;;;;;;;;;;4996290;28;20077;-75
2022/10/06 00:43:55;;;;;;;5.20;2.05;;;;;;;;;;4996110;28;20054;-75
2022/10/06 00:46:46;;;;;;;4.32;2.10;;;;;;;;;;4994815;28;20035;-75
2022/10/06 00:49:19;;;;;;;3.17;1.75;;;;;;;;;;4996355;28;20041;-76
2022/10/06 00:51:48;;;;;;;7.78;2.00;;;;;;;;;;4995976;28;20361;-76
2022/10/06 00:54:13;;;;;;;4.00;2.10;;;;;;;;;;4996088;28;20034;-75
2022/10/06 00:56:39;;;;;;;4.45;1.90;;;;;;;;;;4995888;28;20539;-76
2022/10/06 00:59:09;;;;;;;5.80;2.08;;;;;;;;;;4996115;28;20057;-76
2022/10/06 01:01:35;;;;;;;5.97;2.28;;;;;;;;;;4994626;28;20026;-76
2022/10/06 01:04:07;;;;;;;2.30;1.70;;;;;;;;;;4996070;28;20030;-75
2022/10/06 01:06:40;;;;;;;4.25;2.00;;;;;;;;;;4995054;28;20073;-77
2022/10/06 01:09:06;;;;;;;6.45;2.15;;;;;;;;;;4996018;28;20022;-77
2022/10/06 01:11:33;;;;;;;3.67;2.00;;;;;;;;;;4995619;28;20026;-76
2022/10/06 01:13:59;;;;;;;2.70;2.00;;;;;;;;;;4994285;28;20480;-76
2022/10/06 01:16:25;;;;;;;6.35;2.05;;;;;;;;;;4995518;28;20080;-77
2022/10/06 01:18:54;;;;;;;4.40;2.15;;;;;;;;;;4995547;28;20026;-75
2022/10/06 01:21:33;;;;;;;4.28;2.20;;;;;;;;;;4995463;28;20034;-76
2022/10/06 01:24:00;;;;;;;3.67;2.22;;;;;;;;;;5010355;28;20030;-76
2022/10/06 01:26:27;;;;;;;4.47;2.22;;;;;;;;;;4995414;28;20458;-76
2022/10/06 01:28:52;;;;;;;8.15;2.47;;;;;;;;;;4995292;28;20026;-76
2022/10/06 01:31:18;;;;;;;7.10;2.38;;;;;;;;;;4995184;28;20556;-76
2022/10/06 01:33:43;;;;;;;5.10;2.15;;;;;;;;;;4995212;28;20105;-76
2022/10/06 01:36:08;;;;;;;5.70;3.53;;;;;;;;;;4995320;28;20480;-77
2022/10/06 01:38:35;;;;;;;3.78;2.13;;;;;;;;;;4995095;28;20543;-77
2022/10/06 01:41:00;;;;;;;3.40;2.08;;;;;;;;;;4994929;28;20546;-76
2022/10/06 01:43:26;;;;;;;3.40;2.40;;;;;;;;;;4993774;28;20030;-77
2022/10/06 01:45:55;;;;;;;5.03;2.42;;;;;;;;;;4993943;28;20026;-76
2022/10/06 01:48:21;;;;;;;3.88;2.58;;;;;;;;;;4995185;28;20038;-76
2022/10/06 01:50:46;;;;;;;4.35;2.35;;;;;;;;;;4995098;28;20117;-76
2022/10/06 01:53:12;;;;;;;6.32;2.30;;;;;;;;;;4994955;28;20045;-76
2022/10/06 01:55:37;;;;;;;3.67;2.40;;;;;;;;;;4995171;28;20405;-77
2022/10/06 01:58:02;;;;;;;3.30;2.13;;;;;;;;;;4994951;28;20030;-76
2022/10/06 02:00:27;;;;;;;2.83;2.05;;;;;;;;;;4994513;28;20045;-76
2022/10/06 02:02:53;;;;;;;3.90;2.35;;;;;;;;;;4993360;28;20026;-76
2022/10/06 02:05:18;;;;;;;2.92;2.13;;;;;;;;;;4994719;28;20109;-76
2022/10/06 02:07:44;;;;;;;7.72;2.60;;;;;;;;;;4994882;28;20064;-76
2022/10/06 02:10:09;;;;;;;3.50;2.20;;;;;;;;;;4993276;28;20034;-76
2022/10/06 02:12:34;;;;;;;5.05;2.17;;;;;;;;;;4994509;28;20034;-76
2022/10/06 02:14:59;;;;;;;5.20;2.50;;;;;;;;;;5009925;28;20379;-76
2022/10/06 02:17:25;;;;;;;3.80;2.40;;;;;;;;;;4994748;28;20034;-75
2022/10/06 02:19:50;;;;;;;8.27;2.58;;;;;;;;;;4994650;28;20053;-75
2022/10/06 02:22:16;;;;;;;4.70;2.30;;;;;;;;;;4994401;28;20472;-77
2022/10/06 02:24:41;;;;;;;4.18;2.53;;;;;;;;;;4994345;28;20033;-76
2022/10/06 02:27:07;;;;;;;5.15;2.40;;;;;;;;;;4994337;28;20026;-76
2022/10/06 02:29:33;;;;;;;3.60;2.22;;;;;;;;;;5009417;28;20022;-76
2022/10/06 02:31:58;;;;;;;5.30;2.60;;;;;;;;;;4994199;28;20023;-75
2022/10/06 02:34:23;;;;;;;4.13;2.20;;;;;;;;;;4994165;28;20018;-76
2022/10/06 02:36:49;;;;;;;6.18;2.55;;;;;;;;;;4994205;28;20495;-76
2022/10/06 02:39:14;;;;;;;4.47;2.40;;;;;;;;;;4994542;28;20037;-76
2022/10/06 02:41:39;;;;;;;5.05;2.53;;;;;;;;;;4993954;28;20077;-77
2022/10/06 02:44:05;;;;;;;6.00;2.30;;;;;;;;;;4992763;28;20472;-77
2022/10/06 02:46:30;;;;;;;4.03;2.63;;;;;;;;;;4994332;28;20022;-75
2022/10/06 02:48:56;;;;;;;5.18;2.53;;;;;;;;;;4992986;28;20096;-76
2022/10/06 02:51:22;;;;;;;4.53;2.33;;;;;;;;;;4995066;28;20098;-76
2022/10/06 02:53:48;;;;;;;5.78;2.58;;;;;;;;;;4993977;28;20030;-75
2022/10/06 02:56:16;;;;;;;4.82;2.90;;;;;;;;;;4994116;28;20033;-76
2022/10/06 02:58:42;;;;;;;4.88;2.50;;;;;;;;;;4993814;28;20484;-77
2022/10/06 03:01:13;;;;;;;4.00;2.20;;;;;;;;;;4993480;28;20069;-75
2022/10/06 03:03:39;;;;;;;4.05;2.53;;;;;;;;;;4993803;28;20033;-76
2022/10/06 03:06:20;;;;;;;7.60;2.53;;;;;;;;;;4994169;28;20022;-75
2022/10/06 03:08:50;;;;;;;3.65;2.47;;;;;;;;;;4992537;28;20022;-76
2022/10/06 03:11:18;;;;;;;3.78;2.78;;;;;;;;;;4993647;28;20045;-75
2022/10/06 03:13:44;;;;;;;6.05;2.70;;;;;;;;;;4992499;28;20026;-77
2022/10/06 03:16:22;;;;;;;7.68;2.65;;;;;;;;;;4993835;28;20049;-77
2022/10/06 03:18:49;;;;;;;4.65;2.60;;;;;;;;;;4993965;28;20369;-76
2022/10/06 03:21:22;;;;;;;4.45;2.63;;;;;;;;;;4993530;28;20116;-76
2022/10/06 03:23:49;;;;;;;3.58;2.88;;;;;;;;;;4994217;28;20034;-76
2022/10/06 03:26:16;;;;;;;6.25;2.78;;;;;;;;;;4997853;28;20029;-76
2022/10/06 03:28:42;;;;;;;6.40;2.80;;;;;;;;;;4997828;28;20026;-76
2022/10/06 03:31:08;;;;;;;7.45;3.25;;;;;;;;;;4997511;28;20579;-76
2022/10/06 03:33:33;;;;;;;3.55;2.65;;;;;;;;;;4996468;28;20122;-76
2022/10/06 03:36:08;;;;;;;5.40;2.90;;;;;;;;;;4997631;28;20026;-76
2022/10/06 03:38:35;;;;;;;5.05;2.67;;;;;;;;;;4997655;28;20077;-77
2022/10/06 03:41:04;;;;;;;4.07;2.88;;;;;;;;;;4997440;28;20429;-76
2022/10/06 03:43:30;;;;;;;10.05;2.65;;;;;;;;;;4996026;28;20380;-76
2022/10/06 03:45:57;;;;;;;5.35;2.83;;;;;;;;;;4996028;28;20025;-77
2022/10/06 03:48:22;;;;;;;7.03;2.90;;;;;;;;;;4997188;28;20034;-76
2022/10/06 03:50:59;;;;;;;11.30;3.22;;;;;;;;;;4997420;28;20110;-75
2022/10/06 03:53:26;;;;;;;8.35;3.50;;;;;;;;;;4997307;28;20101;-76
2022/10/06 03:56:20;;;;;;;2.70;2.28;;;;;;;;;;4995926;28;20030;-77
2022/10/06 03:58:49;;;;;;;12.10;3.20;;;;;;;;;;4994943;28;20045;-77
2022/10/06 04:01:23;;;;;;;5.07;2.85;;;;;;;;;;4996811;28;20027;-76
2022/10/06 04:03:48;;;;;;;7.00;2.75;;;;;;;;;;4997564;28;20029;-76
2022/10/06 04:06:16;;;;;;;5.07;2.80;;;;;;;;;;4996877;28;20395;-76
2022/10/06 04:08:42;;;;;;;6.22;2.47;;;;;;;;;;4997047;28;20042;-76
2022/10/06 04:11:12;;;;;;;5.63;2.72;;;;;;;;;;4996890;28;20168;-76
2022/10/06 04:13:38;;;;;;;12.73;2.80;;;;;;;;;;4997130;28;20060;-76
2022/10/06 04:16:23;;;;;;;8.00;3.10;;;;;;;;;;4997038;28;20037;-77
2022/10/06 04:18:52;;;;;;;5.97;2.88;;;;;;;;;;4995523;28;20116;-76
2022/10/06 04:21:17;;;;;;;14.27;3.20;;;;;;;;;;4996860;28;20022;-76
2022/10/06 04:23:43;;;;;;;10.10;3.03;;;;;;;;;;4996660;28;20041;-77
2022/10/06 04:26:14;;;;;;;6.30;2.90;;;;;;;;;;4996638;28;20460;-76
2022/10/06 04:28:42;;;;;;;8.50;3.33;;;;;;;;;;4996452;28;20037;-77
2022/10/06 04:31:35;;;;;;;8.07;3.15;;;;;;;;;;4995059;28;20038;-76
2022/10/06 04:34:02;;;;;;;7.85;3.88;;;;;;;;;;4993965;28;20149;-76
2022/10/06 04:36:30;;;;;;;8.60;2.95;;;;;;;;;;4993856;28;20622;-77
2022/10/06 04:38:58;;;;;;;5.57;2.80;;;;;;;;;;4996590;28;20101;-77
2022/10/06 04:41:28;;;;;;;5.13;2.72;;;;;;;;;;4996124;28;20033;-77
2022/10/06 04:43:55;;;;;;;4.72;2.88;;;;;;;;;;4996065;28;20034;-75
2022/10/06 04:46:21;;;;;;;7.93;3.20;;;;;;;;;;4996306;28;20054;-76
2022/10/06 04:48:49;;;;;;;11.05;3.53;;;;;;;;;;4996345;28;20026;-76
2022/10/06 04:51:15;;;;;;;9.05;4.40;;;;;;;;;;4996382;28;20069;-76
2022/10/06 04:53:45;;;;;;;11.65;4.72;;;;;;;;;;4996137;28;20549;-77
2022/10/06 04:56:14;;;;;;;7.47;3.50;;;;;;;;;;4994675;28;20026;-76
2022/10/06 04:58:41;;;;;;;5.85;3.00;;;;;;;;;;4995875;28;20026;-76
2022/10/06 05:01:20;;;;;;;8.23;3.00;;;;;;;;;;4994608;28;20171;-76
2022/10/06 05:03:47;;;;;;;6.47;3.08;;;;;;;;;;4996160;28;20045;-76
2022/10/06 05:06:14;;;;;;;9.23;3.08;;;;;;;;;;4996099;28;20369;-76
2022/10/06 05:08:39;;;;;;;5.07;2.63;;;;;;;;;;4995730;28;20101;-76
2022/10/06 05:11:10;;;;;;;5.18;2.65;;;;;;;;;;4994421;28;20165;-76
2022/10/06 05:13:36;;;;;;;4.45;2.65;;;;;;;;;;4995820;28;20077;-76
2022/10/06 05:16:02;;;;;;;5.55;2.30;;;;;;;;;;4995796;28;20392;-76
2022/10/06 05:18:29;;;;;;;6.55;3.30;;;;;;;;;;4994038;28;20125;-76
2022/10/06 05:21:06;;;;;;;4.78;2.55;;;;;;;;;;4995354;28;20027;-76
2022/10/06 05:23:34;;;;;;;4.07;2.53;;;;;;;;;;4994229;28;20022;-76
2022/10/06 05:26:00;;;;;;;6.75;2.60;;;;;;;;;;4995492;28;20076;-77
2022/10/06 05:28:27;;;;;;;5.60;2.72;;;;;;;;;;4995373;28;20026;-76
2022/10/06 05:30:58;;;;;;;6.32;2.80;;;;;;;;;;4995217;28;20086;-76
2022/10/06 05:33:26;;;;;;;11.15;3.17;;;;;;;;;;4995469;28;20475;-76
2022/10/06 05:35:53;;;;;;;8.10;3.15;;;;;;;;;;4993940;28;20168;-76
2022/10/06 05:38:18;;;;;;;6.40;3.05;;;;;;;;;;4994986;28;20400;-77
2022/10/06 05:40:44;;;;;;;7.43;3.03;;;;;;;;;;4995113;28;20019;-76
2022/10/06 05:43:09;;;;;;;12.48;3.22;;;;;;;;;;4993770;28;20028;-75
2022/10/06 05:45:34;;;;;;;5.95;3.22;;;;;;;;;;4994890;28;20030;-75
2022/10/06 05:47:59;;;;;;;11.48;4.05;;;;;;;;;;4993209;28;20030;-77
2022/10/06 05:50:25;;;;;;;6.55;3.17;;;;;;;;;;4995038;28;20090;-76
2022/10/06 05:52:53;;;;;;;7.05;3.03;;;;;;;;;;4993591;28;20018;-75
2022/10/06 05:55:18;;;;;;;6.05;2.65;;;;;;;;;;4994776;28;20480;-75
2022/10/06 05:57:43;;;;;;;7.05;2.58;;;;;;;;;;4995032;28;20034;-76
2022/10/06 06:00:09;;;;;;;6.72;2.63;;;;;;;;;;5009622;28;20116;-76
2022/10/06 06:02:34;;;;;;;4.85;2.60;;;;;;;;;;4995138;28;20022;-76
2022/10/06 06:05:00;;;;;;;3.58;1.88;;;;;;;;;;4994806;28;20033;-77
2022/10/06 06:07:25;;;;;;;6.82;1.95;;;;;;;;;;4994468;28;20018;-75
2022/10/06 06:09:52;;;;;;;3.67;1.90;;;;;;;;;;4994741;28;20038;-75
2022/10/06 06:12:17;;;;;;;2.97;1.70;;;;;;;;;;5009580;28;20026;-76
2022/10/06 06:17:26;;;;;;;2.58;1.60;;;;;;;;;;4994703;28;20484;-76
2022/10/06 06:19:51;;;;;;;4.43;1.75;;;;;;;;;;4994542;28;20034;-76
2022/10/06 06:22:16;;;;;;;3.30;1.80;;;;;;;;;;4992954;28;20105;-76
2022/10/06 06:24:41;;;;;;;4.23;1.80;;;;;;;;;;4994270;28;20030;-76
2022/10/06 06:27:07;;;;;;;4.05;1.90;;;;;;;;;;4994604;28;20268;-76
2022/10/06 06:29:32;;;;;;;4.35;1.88;;;;;;;;;;4994205;28;20506;-76
2022/10/06 06:31:58;;;;;;;3.88;1.98;;;;;;;;;;4994133;28;20026;-77
2022/10/06 06:34:25;;;;;;;2.20;1.27;;;;;;;;;;4992795;28;20403;-76
2022/10/06 06:36:53;;;;;;;1.65;0.77;;;;;;;;;;4992698;28;20030;-75
2022/10/06 06:39:20;;;;;;;2.13;0.60;;;;;;;;;;4992842;28;20058;-76
2022/10/06 06:41:45;;;;;;;1.58;0.50;;;;;;;;;;4992610;28;20022;-76
2022/10/06 06:44:12;;;;;;;3.03;0.50;;;;;;;;;;4992645;28;20027;-77
2022/10/06 06:46:39;;;;;;;1.15;0.50;;;;;;;;;;4993883;28;20022;-76
2022/10/06 06:49:05;;;;;;;2.50;0.60;;;;;;;;;;4993823;28;20038;-76
2022/10/06 06:51:33;;;;;;;2.47;0.43;;;;;;;;;;4993795;28;20022;-76
2022/10/06 06:54:01;;;;;;;1.42;0.60;;;;;;;;;;4994046;28;20427;-76
2022/10/06 06:56:26;;;;;;;1.10;0.43;;;;;;;;;;4993737;28;20030;-76
2022/10/06 06:58:52;;;;;;;2.83;0.45;;;;;;;;;;4993153;28;20603;-75
2022/10/06 07:01:19;;;;;;;3.75;0.60;;;;;;;;;;4993574;28;20034;-76
2022/10/06 07:03:49;;;;;;;6.32;0.70;;;;;;;;;;4993702;28;20076;-76
2022/10/06 07:06:15;;;;;;;5.05;0.60;;;;;;;;;;4994256;28;20474;-75
2022/10/06 07:08:43;;;;;;;2.78;0.50;;;;;;;;;;4993715;28;20097;-76
2022/10/06 07:11:14;;;;;;;3.63;0.68;;;;;;;;;;4993600;28;20122;-76
2022/10/06 07:13:39;;;;;;;4.90;0.98;;;;;;;;;;4993414;28;20105;-76
2022/10/06 07:27:04;;;;;;;3.65;0.70;;;;;;;;;;4993755;28;20387;-76
2022/10/06 07:29:29;;;;;;;3.58;0.73;;;;;;;;;;4993572;28;20029;-77
2022/10/06 07:31:55;;;;;;;1.13;0.80;;;;;;;;;;4993428;28;20023;-76
2022/10/06 07:34:21;;;;;;;2.45;0.80;;;;;;;;;;5008686;28;20022;-76
2022/10/06 07:36:49;;;;;;;5.60;0.75;;;;;;;;;;4993414;28;20575;-76
2022/10/06 07:39:14;;;;;;;1.73;0.60;;;;;;;;;;4993360;28;20030;-76
2022/10/06 07:41:39;;;;;;;1.20;0.60;;;;;;;;;;4993274;28;20027;-76
2022/10/06 07:44:04;;;;;;;4.88;1.00;;;;;;;;;;4993375;28;20030;-76
2022/10/06 07:46:32;;;;;;;2.53;0.90;;;;;;;;;;4993246;28;20033;-76
2022/10/06 07:48:57;;;;;;;2.40;0.68;;;;;;;;;;4993673;28;20022;-76
2022/10/06 07:51:23;;;;;;;5.88;0.80;;;;;;;;;;4993234;28;20026;-76
2022/10/06 07:53:52;;;;;;;3.25;0.80;;;;;;;;;;5008279;28;20058;-76
2022/10/06 07:56:21;;;;;;;5.15;0.80;;;;;;;;;;4993319;28;20104;-76
2022/10/06 07:58:48;;;;;;;1.30;0.73;;;;;;;;;;4991857;28;20058;-76
2022/10/06 08:01:16;;;;;;;5.25;0.73;;;;;;;;;;4991779;28;20052;-76
2022/10/06 08:03:43;;;;;;;4.70;1.30;;;;;;;;;;4993140;28;20398;-76
2022/10/06 08:06:12;;;;;;;4.93;0.88;;;;;;;;;;4993345;28;20351;-77
2022/10/06 08:08:39;;;;;;;8.27;1.10;;;;;;;;;;4993060;28;20034;-76
2022/10/06 08:11:06;;;;;;;3.35;0.70;;;;;;;;;;4995532;28;20054;-77
2022/10/06 08:13:31;;;;;;;3.92;0.93;;;;;;;;;;5011685;28;20037;-76
2022/10/06 08:16:06;;;;;;;2.92;1.08;;;;;;;;;;4995333;28;20138;-76
2022/10/06 08:18:32;;;;;;;4.63;1.20;;;;;;;;;;5011707;28;20097;-78
2022/10/06 08:20:58;;;;;;;3.65;0.90;;;;;;;;;;4995159;28;20480;-76
2022/10/06 08:23:24;;;;;;;5.82;0.90;;;;;;;;;;4996464;28;20030;-76
2022/10/06 08:25:52;;;;;;;5.88;0.80;;;;;;;;;;4996565;28;20476;-77
2022/10/06 08:28:19;;;;;;;1.88;0.88;;;;;;;;;;5011446;28;20157;-76
2022/10/06 08:30:44;;;;;;;2.70;0.75;;;;;;;;;;4996604;28;20037;-77
2022/10/06 08:33:10;;;;;;;2.90;1.10;;;;;;;;;;4996712;28;20026;-76
2022/10/06 08:35:36;;;;;;;3.90;0.95;;;;;;;;;;4996536;28;20097;-76
2022/10/06 08:38:01;;;;;;;6.55;0.93;;;;;;;;;;5011280;28;20446;-76
2022/10/06 08:40:27;;;;;;;6.72;1.08;;;;;;;;;;4996076;28;20065;-75
2022/10/06 08:42:57;;;;;;;4.28;0.73;;;;;;;;;;4996427;28;20026;-76
2022/10/06 08:45:35;;;;;;;3.33;0.80;;;;;;;;;;4996188;28;20513;-75
2022/10/06 08:48:13;;;;;;;3.88;1.20;;;;;;;;;;4996030;28;20502;-76
2022/10/06 08:51:06;;;;;;;2.63;0.90;;;;;;;;;;4996243;28;20026;-75
2022/10/06 08:53:45;;;;;;;1.73;0.80;;;;;;;;;;4996013;28;20042;-76
2022/10/06 08:56:20;;;;;;;4.65;1.30;;;;;;;;;;4995747;28;20399;-75
2022/10/06 08:58:52;;;;;;;2.63;0.93;;;;;;;;;;4994356;28;20019;-75
2022/10/06 09:01:22;;;;;;;2.95;0.90;;;;;;;;;;4995593;28;20502;-76
2022/10/06 09:03:50;;;;;;;6.30;1.05;;;;;;;;;;4996055;28;20048;-76
2022/10/06 09:06:36;;;;;;;7.20;1.08;;;;;;;;;;4995963;28;20026;-76
2022/10/06 09:09:37;;;;;;;9.18;0.93;;;;;;;;;;4995887;28;20399;-77
2022/10/06 09:12:30;;;;;;;3.67;0.80;;;;;;;;;;5010605;28;20113;-76
2022/10/06 09:15:14;;;;;;;3.35;1.23;;;;;;;;;;4995630;28;20027;-78
2022/10/06 09:17:48;;;;;;;8.32;0.90;;;;;;;;;;5010588;28;20026;-76
2022/10/06 09:20:21;;;;;;;2.78;0.80;;;;;;;;;;4995572;28;20030;-77
2022/10/06 09:22:50;;;;;;;5.95;0.90;;;;;;;;;;4993395;28;20507;-76
2022/10/06 09:25:25;;;;;;;7.70;1.20;;;;;;;;;;4995283;28;20057;-76
2022/10/06 09:27:53;;;;;;;2.67;0.60;;;;;;;;;;4995592;28;20084;-77
2022/10/06 09:30:19;;;;;;;9.60;0.90;;;;;;;;;;4995225;28;20119;-76
2022/10/06 09:32:56;;;;;;;3.65;0.90;;;;;;;;;;4995286;28;20050;-76
2022/10/06 09:35:23;;;;;;;3.13;0.80;;;;;;;;;;4994223;28;20045;-76
2022/10/06 09:38:10;;;;;;;2.53;1.20;;;;;;;;;;4995551;28;20038;-76
2022/10/06 09:40:53;;;;;;;2.00;0.70;;;;;;;;;;5010058;28;20081;-75
2022/10/06 09:43:24;;;;;;;3.20;0.80;;;;;;;;;;4995545;28;20053;-75
2022/10/06 09:45:50;;;;;;;3.90;1.00;;;;;;;;;;4994994;28;20105;-77
2022/10/06 09:48:22;;;;;;;2.95;0.82;;;;;;;;;;4994906;28;20116;-76
2022/10/06 09:51:07;;;;;;;2.15;0.82;;;;;;;;;;4993533;28;20034;-77
2022/10/06 09:53:32;;;;;;;2.72;0.88;;;;;;;;;;4993601;28;20045;-76
2022/10/06 09:56:03;;;;;;;4.55;0.73;;;;;;;;;;4993702;28;20479;-77
2022/10/06 09:58:36;;;;;;;2.40;0.90;;;;;;;;;;4994675;28;20037;-76
2022/10/06 10:01:07;;;;;;;2.17;0.93;;;;;;;;;;4993223;28;20037;-76
2022/10/06 10:03:50;;;;;;;4.05;1.13;;;;;;;;;;4994789;28;20030;-76
2022/10/06 10:06:26;;;;;;;6.28;0.98;;;;;;;;;;4994720;28;20101;-75
2022/10/06 10:09:11;;;;;;;2.53;0.93;;;;;;;;;;4994973;28;20038;-75
2022/10/06 10:14:20;;;;;;;3.00;0.93;;;;;;;;;;4994623;28;20038;-76
2022/10/06 10:16:46;;;;;;;4.28;0.90;;;;;;;;;;4994850;28;20030;-76
2022/10/06 10:19:35;;;;;;;5.90;1.17;;;;;;;;;;4993293;28;20026;-76
2022/10/06 10:22:02;;;;;;;3.63;0.90;;;;;;;;;;4994214;28;20113;-76
2022/10/06 10:24:47;;;;;;;3.13;0.90;;;;;;;;;;4993127;28;20034;-76
2022/10/06 10:27:23;;;;;;;8.95;1.10;;;;;;;;;;4994448;28;20026;-76
2022/10/06 10:30:08;;;;;;;1.95;0.70;;;;;;;;;;5009490;28;20455;-77
2022/10/06 10:32:54;;;;;;;2.20;0.80;;;;;;;;;;4994362;28;20022;-76
2022/10/06 10:35:25;;;;;;;2.45;0.90;;;;;;;;;;4994456;28;20078;-76
2022/10/06 10:38:08;;;;;;;3.13;0.90;;;;;;;;;;4994402;28;20030;-76
2022/10/06 10:40:42;;;;;;;2.83;0.93;;;;;;;;;;4994852;28;20033;-75
2022/10/06 10:43:33;;;;;;;6.85;1.10;;;;;;;;;;4994166;28;20026;-76
2022/10/06 10:46:16;;;;;;;4.10;1.05;;;;;;;;;;4993993;28;20030;-76
2022/10/06 10:48:47;;;;;;;5.07;1.20;;;;;;;;;;4994265;28;20033;-76
2022/10/06 10:51:21;;;;;;;5.03;1.10;;;;;;;;;;4994209;28;20081;-74
2022/10/06 10:53:51;;;;;;;6.75;1.17;;;;;;;;;;4993949;28;20035;-75
2022/10/06 10:56:18;;;;;;;4.03;1.00;;;;;;;;;;4993848;28;20026;-76
2022/10/06 10:58:51;;;;;;;7.53;1.55;;;;;;;;;;4993707;28;20026;-77
2022/10/06 11:01:24;;;;;;;5.70;1.15;;;;;;;;;;4993582;28;20035;-74
2022/10/06 11:03:55;;;;;;;5.70;1.00;;;;;;;;;;4993839;28;20026;-77
2022/10/06 11:06:48;;;;;;;3.38;1.00;;;;;;;;;;4994019;28;20032;-77
2022/10/06 11:09:17;;;;;;;4.50;1.20;;;;;;;;;;4993686;28;20141;-77
2022/10/06 11:12:21;;;;;;;6.00;1.10;;;;;;;;;;4993714;28;20014;-77
2022/10/06 11:15:02;;;;;;;4.30;1.10;;;;;;;;;;4993723;28;20088;-77
2022/10/06 11:17:43;;;;;;;7.85;0.90;;;;;;;;;;4993943;28;20360;-76
2022/10/06 11:20:34;;;;;;;4.35;0.90;;;;;;;;;;4993579;28;20027;-76
2022/10/06 11:23:27;;;;;;;4.60;1.20;;;;;;;;;;4993397;28;20037;-76
2022/10/06 11:25:54;;;;;;;3.07;0.90;;;;;;;;;;4993736;28;20022;-77
2022/10/06 11:28:40;;;;;;;3.97;1.10;;;;;;;;;;4993490;28;20268;-75
2022/10/06 11:31:22;;;;;;;3.10;1.25;;;;;;;;;;4993595;28;20035;-74
2022/10/06 11:33:53;;;;;;;3.17;0.93;;;;;;;;;;4993743;28;20109;-77
2022/10/06 11:36:30;;;;;;;3.28;1.02;;;;;;;;;;4993999;28;20029;-77
2022/10/06 11:39:05;;;;;;;5.38;1.20;;;;;;;;;;4993542;28;20030;-76
2022/10/06 11:41:39;;;;;;;4.03;0.98;;;;;;;;;;4992019;28;20089;-75
2022/10/06 11:44:35;;;;;;;2.88;1.00;;;;;;;;;;4993600;28;20027;-76
2022/10/06 11:47:06;;;;;;;4.40;1.40;;;;;;;;;;4993567;28;20125;-75
2022/10/06 11:49:31;;;;;;;3.72;1.48;;;;;;;;;;4997353;28;20044;-76
2022/10/06 11:52:16;;;;;;;2.55;0.90;;;;;;;;;;5012284;28;20478;-76
2022/10/06 11:54:42;;;;;;;4.40;1.00;;;;;;;;;;4986628;28;20388;-76
2022/10/06 11:57:22;;;;;;;3.53;1.20;;;;;;;;;;4997113;28;20080;-76
2022/10/06 11:59:51;;;;;;;6.03;1.10;;;;;;;;;;4997055;28;20276;-76
2022/10/06 12:02:31;;;;;;;2.03;0.90;;;;;;;;;;4997289;28;20487;-75
2022/10/06 12:05:08;;;;;;;5.70;1.10;;;;;;;;;;5012210;28;20037;-76
2022/10/06 12:07:55;;;;;;;3.67;0.90;;;;;;;;;;4996984;28;20396;-75
2022/10/06 12:10:26;;;;;;;2.45;0.90;;;;;;;;;;4996784;28;20438;-75
2022/10/06 12:12:57;;;;;;;6.57;1.35;;;;;;;;;;4996870;28;20072;-76
2022/10/06 12:15:36;;;;;;;3.95;1.17;;;;;;;;;;4996818;28;20026;-76
2022/10/06 12:18:06;;;;;;;7.25;1.00;;;;;;;;;;4996671;28;20105;-76
2022/10/06 12:20:46;;;;;;;3.00;1.15;;;;;;;;;;4996589;28;20030;-75
2022/10/06 12:23:12;;;;;;;7.45;0.90;;;;;;;;;;4995370;28;20030;-77
2022/10/06 12:25:49;;;;;;;2.92;0.80;;;;;;;;;;4996664;28;20442;-76
2022/10/06 12:28:35;;;;;;;4.40;1.17;;;;;;;;;;4997239;28;20026;-77
2022/10/06 12:31:36;;;;;;;2.42;0.93;;;;;;;;;;4996899;28;20399;-76
2022/10/06 12:34:01;;;;;;;8.15;1.00;;;;;;;;;;4973753;28;20443;-77
2022/10/06 12:36:30;;;;;;;6.32;1.27;;;;;;;;;;4995648;28;20072;-77
2022/10/06 12:39:03;;;;;;;4.47;1.08;;;;;;;;;;4996701;28;20026;-76
2022/10/06 12:41:58;;;;;;;6.95;0.95;;;;;;;;;;4995385;28;20034;-76
2022/10/06 12:44:34;;;;;;;1.92;0.80;;;;;;;;;;4996613;28;20018;-77
2022/10/06 12:47:02;;;;;;;2.72;0.80;;;;;;;;;;4996765;28;20084;-76
2022/10/06 12:49:42;;;;;;;3.53;1.10;;;;;;;;;;4996567;28;20065;-77
2022/10/06 12:52:32;;;;;;;3.95;0.95;;;;;;;;;;4997184;28;20384;-77
2022/10/06 12:55:26;;;;;;;1.73;0.63;;;;;;;;;;4996198;28;20069;-76
2022/10/06 12:57:53;;;;;;;5.80;1.00;;;;;;;;;;4995299;28;20022;-76
2022/10/06 13:00:34;;;;;;;4.47;1.13;;;;;;;;;;4996171;28;20275;-76
2022/10/06 13:03:02;;;;;;;3.63;0.90;;;;;;;;;;4996366;28;20034;-76
2022/10/06 13:05:27;;;;;;;4.00;1.02;;;;;;;;;;4996975;28;20026;-77
2022/10/06 13:08:19;;;;;;;7.40;1.27;;;;;;;;;;5005352;28;20023;-74
2022/10/06 13:10:44;;;;;;;6.38;0.93;;;;;;;;;;5006762;28;20049;-76
2022/10/06 13:13:23;;;;;;;3.38;0.82;;;;;;;;;;5007156;28;20460;-75
2022/10/06 13:15:54;;;;;;;7.50;1.00;;;;;;;;;;5008161;28;20022;-75
2022/10/06 13:18:21;;;;;;;5.57;1.17;;;;;;;;;;5005581;28;20026;-75
2022/10/06 13:20:57;;;;;;;3.25;0.90;;;;;;;;;;5006959;28;20041;-75
2022/10/06 13:23:37;;;;;;;5.70;1.20;;;;;;;;;;5007631;28;20034;-76
2022/10/06 13:26:05;;;;;;;5.70;1.30;;;;;;;;;;5007480;28;20029;-75
2022/10/06 13:28:50;;;;;;;6.03;1.10;;;;;;;;;;5007380;28;20105;-75
2022/10/06 13:31:20;;;;;;;3.40;0.73;;;;;;;;;;5005399;28;20026;-75
2022/10/06 13:33:54;;;;;;;4.65;1.15;;;;;;;;;;5008466;28;20030;-74
2022/10/06 13:36:22;;;;;;;6.25;1.50;;;;;;;;;;5006974;28;20022;-75
2022/10/06 13:38:47;;;;;;;4.20;1.02;;;;;;;;;;5007523;28;20053;-75
2022/10/06 13:41:24;;;;;;;4.53;1.10;;;;;;;;;;5005816;28;20034;-75
2022/10/06 13:43:53;;;;;;;7.05;0.95;;;;;;;;;;5007495;28;20069;-75
2022/10/06 13:46:22;;;;;;;3.38;1.10;;;;;;;;;;5006953;28;20108;-75
2022/10/06 13:48:51;;;;;;;5.53;1.13;;;;;;;;;;5009086;28;20026;-75
2022/10/06 13:51:29;;;;;;;5.45;1.00;;;;;;;;;;5007512;28;20037;-75
2022/10/06 13:53:57;;;;;;;5.60;1.00;;;;;;;;;;5003472;28;20044;-75
2022/10/06 13:56:37;;;;;;;6.45;1.05;;;;;;;;;;5004204;28;20022;-75
2022/10/06 13:59:29;;;;;;;5.43;0.88;;;;;;;;;;5004549;28;20038;-75
2022/10/06 14:01:56;;;;;;;6.03;1.10;;;;;;;;;;5002127;28;20039;-75
2022/10/06 14:04:22;;;;;;;5.38;1.00;;;;;;;;;;4999385;28;20034;-76
2022/10/06 14:06:51;;;;;;;2.75;0.95;;;;;;;;;;4994905;28;20392;-76
2022/10/06 14:09:24;;;;;;;4.80;1.00;;;;;;;;;;4994697;28;20361;-76
2022/10/06 14:11:52;;;;;;;5.55;1.05;;;;;;;;;;4993319;28;20038;-76
2022/10/06 14:14:17;;;;;;;4.05;1.13;;;;;;;;;;4994674;28;20025;-75
2022/10/06 14:16:51;;;;;;;3.75;1.00;;;;;;;;;;4994526;28;20112;-76
2022/10/06 14:19:33;;;;;;;;;;;;;;;;;;4994936;28;20032;-75
2022/10/06 14:21:59;;;;;;;4.22;1.08;;;;;;;;;;4993145;28;19928;-75
2022/10/06 14:24:27;;;;;;;2.63;0.90;;;;;;;;;;4994350;28;20018;-75
2022/10/06 14:26:54;;;;;;;4.97;1.15;;;;;;;;;;4994349;28;20026;-75
2022/10/06 14:29:21;;;;;;;4.32;1.10;;;;;;;;;;4992972;28;20026;-75
2022/10/06 14:31:47;;;;;;;7.95;1.10;;;;;;;;;;4994219;28;20042;-75
2022/10/06 14:34:16;;;;;;;5.63;0.80;;;;;;;;;;4994174;28;20109;-75
2022/10/06 14:36:44;;;;;;;3.65;1.00;;;;;;;;;;4994138;28;20025;-76
2022/10/06 14:39:11;;;;;;;6.80;1.30;;;;;;;;;;4992864;28;20026;-75
2022/10/06 14:41:37;;;;;;;5.22;1.35;;;;;;;;;;4993962;28;20109;-75
2022/10/06 14:44:07;;;;;;;4.10;0.95;;;;;;;;;;4994066;28;20459;-76
2022/10/06 14:46:33;;;;;;;6.60;1.02;;;;;;;;;;4995185;28;20024;-75
2022/10/06 14:48:58;;;;;;;5.97;0.90;;;;;;;;;;4994007;28;20053;-76
2022/10/06 14:51:25;;;;;;;7.53;0.80;;;;;;;;;;4993926;28;20022;-75
2022/10/06 14:53:55;;;;;;;6.82;1.05;;;;;;;;;;4993845;28;20496;-75
2022/10/06 14:56:22;;;;;;;6.40;1.02;;;;;;;;;;4993839;28;20049;-75
2022/10/06 14:58:49;;;;;;;5.05;1.33;;;;;;;;;;4993933;28;20026;-75
2022/10/06 15:01:16;;;;;;;11.63;1.10;;;;;;;;;;4993530;28;20036;-76
2022/10/06 15:03:41;;;;;;;4.78;1.00;;;;;;;;;;4993737;28;20521;-76
2022/10/06 15:08:57;;;;;;;3.63;1.10;;;;;;;;;;4994541;28;20034;-77
2022/10/06 15:11:25;;;;;;;5.65;1.20;;;;;;;;;;4993150;28;20030;-76
2022/10/06 15:13:52;;;;;;;7.78;1.38;;;;;;;;;;4993884;28;20026;-76
2022/10/06 15:16:18;;;;;;;7.38;1.90;;;;;;;;;;4994003;28;20030;-76
2022/10/06 15:18:43;;;;;;;4.18;1.15;;;;;;;;;;5008683;28;20395;-75
2022/10/06 15:21:10;;;;;;;6.78;1.10;;;;;;;;;;4992774;28;20018;-76
2022/10/06 15:23:36;;;;;;;7.43;0.95;;;;;;;;;;4993583;28;20030;-76